createdAt,value
2019-03-04T00:01:13.040Z,99.90
2019-03-04T00:03:41.559Z,99.90
2019-03-04T00:06:09.994Z,99.90
2019-03-04T00:08:38.436Z,99.90
2019-03-04T00:11:06.898Z,99.90
2019-03-04T00:13:35.348Z,99.90
2019-03-04T00:16:03.806Z,99.90
2019-03-04T00:18:51.651Z,99.90
2019-03-04T00:21:20.112Z,99.90
2019-03-04T00:23:48.547Z,4.50
2019-03-04T00:26:16.979Z,1.00
2019-03-04T00:28:45.435Z,1.00
2019-03-04T00:31:13.884Z,1.00
2019-03-04T00:33:42.343Z,1.00
2019-03-04T00:36:10.774Z,1.00
2019-03-04T00:38:39.284Z,1.00
2019-03-04T00:41:07.732Z,99.90
2019-03-04T00:43:36.260Z,99.90
2019-03-04T00:46:13.329Z,99.90
2019-03-04T00:48:41.802Z,99.90
2019-03-04T00:51:10.387Z,99.90
2019-03-04T00:53:38.851Z,99.90
2019-03-04T00:56:26.548Z,99.90
2019-03-04T00:58:55.046Z,99.90
2019-03-04T01:01:23.526Z,99.90
2019-03-04T01:03:51.958Z,1.00
2019-03-04T01:06:20.418Z,1.00
2019-03-04T01:08:48.857Z,1.00
2019-03-04T01:11:17.387Z,1.00
2019-03-04T01:13:45.996Z,1.00
2019-03-04T01:16:14.532Z,1.00
2019-03-04T01:18:43.131Z,1.00
2019-03-04T01:21:30.998Z,1.00
2019-03-04T01:23:59.471Z,1.00
2019-03-04T01:26:47.246Z,94.50
2019-03-04T01:29:15.773Z,99.90
2019-03-04T01:31:44.222Z,99.90
2019-03-04T01:34:12.823Z,99.90
2019-03-04T01:36:41.264Z,99.90
2019-03-04T01:39:09.770Z,1.00
2019-03-04T01:41:38.376Z,1.00
2019-03-04T01:44:06.815Z,99.90
2019-03-04T01:46:35.338Z,99.90
2019-03-04T01:49:04.015Z,99.90
2019-03-04T01:51:32.443Z,99.90
2019-03-04T01:54:00.907Z,99.90
2019-03-04T01:56:29.519Z,1.00
2019-03-04T01:58:57.975Z,1.00
2019-03-04T02:01:26.480Z,1.00
2019-03-04T02:03:54.982Z,99.90
2019-03-04T02:06:23.435Z,1.00
2019-03-04T02:08:51.872Z,99.90
2019-03-04T02:11:20.593Z,1.00
2019-03-04T02:13:51.239Z,99.90
2019-03-04T02:16:19.399Z,99.90
2019-03-04T02:18:47.842Z,1.00
2019-03-04T02:21:16.343Z,1.00
2019-03-04T02:23:44.867Z,1.00
2019-03-04T02:26:41.007Z,85.50
2019-03-04T02:29:10.733Z,99.90
2019-03-04T02:31:39.690Z,99.90
2019-03-04T02:34:08.521Z,99.90
2019-03-04T02:36:36.979Z,99.90
2019-03-04T02:39:06.253Z,99.90
2019-03-04T02:41:34.788Z,99.90
2019-03-04T02:44:03.428Z,1.00
2019-03-04T02:46:31.972Z,99.90
2019-03-04T02:49:00.617Z,99.90
2019-03-04T02:51:29.050Z,1.00
2019-03-04T02:53:57.576Z,1.00
2019-03-04T02:56:26.014Z,1.00
2019-03-04T02:58:54.548Z,1.00
2019-03-04T03:01:23.160Z,1.00
2019-03-04T03:03:51.700Z,99.90
2019-03-04T03:06:20.168Z,99.90
2019-03-04T03:08:48.741Z,99.90
2019-03-04T03:11:17.198Z,99.90
2019-03-04T03:13:45.770Z,99.90
2019-03-04T03:16:14.299Z,1.00
2019-03-04T03:18:42.738Z,90.30
2019-03-04T03:21:11.335Z,1.00
2019-03-04T03:23:39.863Z,11.40
2019-03-04T03:26:08.331Z,11.50
2019-03-04T03:28:36.874Z,1.00
2019-03-04T03:31:05.440Z,99.90
2019-03-04T03:33:33.884Z,99.90
2019-03-04T03:36:02.412Z,99.90
2019-03-04T03:38:30.847Z,99.90
2019-03-04T03:40:59.302Z,1.00
2019-03-04T03:43:27.739Z,4.10
2019-03-04T03:45:56.254Z,99.90
2019-03-04T03:48:24.988Z,1.00
2019-03-04T03:51:12.943Z,99.90
2019-03-04T03:56:35.033Z,1.00
2019-03-04T03:59:03.644Z,1.00
2019-03-04T04:01:32.083Z,99.90
2019-03-04T04:04:19.954Z,99.90
2019-03-04T04:07:07.856Z,99.90
2019-03-04T04:09:36.388Z,99.90
2019-03-04T04:12:04.984Z,99.90
2019-03-04T04:14:33.560Z,62.90
2019-03-04T04:17:02.086Z,1.00
2019-03-04T04:19:30.754Z,1.00
2019-03-04T04:21:59.215Z,1.00
2019-03-04T04:24:28.457Z,1.00
2019-03-04T04:26:57.476Z,1.00
2019-03-04T04:29:25.937Z,1.00
2019-03-04T04:31:54.383Z,1.00
2019-03-04T04:34:22.922Z,1.00
2019-03-04T04:36:51.363Z,1.00
2019-03-04T04:39:19.866Z,1.00
2019-03-04T04:41:48.574Z,1.00
2019-03-04T04:44:17.011Z,1.00
2019-03-04T04:46:47.909Z,1.00
2019-03-04T04:49:16.417Z,1.00
2019-03-04T04:52:04.283Z,1.00
2019-03-04T04:54:52.066Z,1.00
2019-03-04T04:57:20.738Z,1.00
2019-03-04T04:59:49.219Z,1.00
2019-03-04T05:02:17.786Z,1.00
2019-03-04T05:04:46.243Z,1.00
2019-03-04T05:07:14.676Z,1.00
2019-03-04T05:09:43.673Z,1.00
2019-03-04T05:12:12.406Z,1.00
2019-03-04T05:14:41.176Z,1.00
2019-03-04T05:17:09.747Z,1.00
2019-03-04T05:19:38.179Z,1.00
2019-03-04T05:22:06.707Z,1.00
2019-03-04T05:24:54.633Z,1.00
2019-03-04T05:27:23.087Z,1.00
2019-03-04T05:29:51.522Z,1.00
2019-03-04T05:32:19.979Z,1.00
2019-03-04T05:34:48.419Z,1.00
2019-03-04T05:37:16.863Z,1.00
2019-03-04T05:39:45.315Z,1.00
2019-03-04T05:42:13.915Z,1.00
2019-03-04T05:44:46.422Z,1.00
2019-03-04T05:47:15.095Z,1.00
2019-03-04T05:49:43.556Z,1.00
2019-03-04T05:52:13.536Z,1.00
2019-03-04T05:54:42.039Z,1.00
2019-03-04T05:57:10.553Z,1.00
2019-03-04T05:59:39.051Z,92.50
2019-03-04T06:02:08.158Z,99.90
2019-03-04T06:04:56.082Z,1.00
2019-03-04T06:07:26.252Z,1.00
2019-03-04T06:09:54.752Z,1.00
2019-03-04T06:12:23.182Z,1.00
2019-03-04T06:14:52.030Z,1.00
2019-03-04T06:17:21.662Z,1.00
2019-03-04T06:19:50.115Z,1.00
2019-03-04T06:22:18.551Z,99.90
2019-03-04T06:24:47.086Z,99.90
2019-03-04T06:27:15.587Z,99.90
2019-03-04T06:29:44.044Z,1.00
2019-03-04T06:32:12.550Z,1.00
2019-03-04T06:34:41.024Z,1.00
2019-03-04T06:37:09.603Z,1.00
2019-03-04T06:39:38.045Z,99.90
2019-03-04T06:42:06.572Z,1.00
2019-03-04T06:44:35.020Z,42.20
2019-03-04T06:47:03.470Z,1.00
2019-03-04T06:49:31.899Z,1.00
2019-03-04T06:52:00.359Z,1.00
2019-03-04T06:54:50.482Z,1.00
2019-03-04T06:57:27.878Z,91.60
2019-03-04T06:59:58.040Z,1.00
2019-03-04T07:02:44.103Z,99.90
2019-03-04T07:05:33.306Z,1.00
2019-03-04T07:08:01.841Z,1.00
2019-03-04T07:10:30.270Z,99.90
2019-03-04T07:12:58.715Z,99.90
2019-03-04T07:15:27.174Z,1.00
2019-03-04T07:17:55.617Z,1.00
2019-03-04T07:20:24.148Z,78.90
2019-03-04T07:22:52.588Z,99.90
2019-03-04T07:25:21.052Z,99.90
2019-03-04T07:27:49.502Z,98.00
2019-03-04T07:30:19.455Z,1.00
2019-03-04T07:32:47.975Z,7.50
2019-03-04T07:35:16.484Z,1.00
2019-03-04T07:37:45.013Z,1.00
2019-03-04T07:40:18.531Z,99.90
2019-03-04T07:42:46.997Z,99.90
2019-03-04T07:45:15.496Z,99.90
2019-03-04T07:47:43.957Z,99.90
2019-03-04T07:50:12.531Z,99.90
2019-03-04T07:52:41.050Z,99.90
2019-03-04T07:55:09.758Z,99.90
2019-03-04T07:57:38.199Z,99.90
2019-03-04T08:00:10.041Z,99.90
2019-03-04T08:02:38.479Z,99.90
2019-03-04T08:05:09.946Z,99.90
2019-03-04T08:07:44.478Z,99.90
2019-03-04T08:10:18.672Z,99.90
2019-03-04T08:13:09.590Z,99.90
2019-03-04T08:15:39.286Z,99.90
2019-03-04T08:18:07.797Z,99.90
2019-03-04T08:20:36.306Z,99.90
2019-03-04T08:23:04.902Z,99.90
2019-03-04T08:25:33.609Z,99.90
2019-03-04T08:28:02.298Z,99.90
2019-03-04T08:30:30.879Z,99.90
2019-03-04T08:32:59.339Z,99.90
2019-03-04T08:35:27.782Z,99.90
2019-03-04T08:37:56.218Z,99.90
2019-03-04T08:40:24.675Z,1.00
2019-03-04T08:42:53.115Z,99.90
2019-03-04T08:45:21.644Z,99.90
2019-03-04T08:47:50.148Z,99.90
2019-03-04T08:50:18.954Z,1.00
2019-03-04T08:52:47.455Z,1.00
2019-03-04T08:55:18.967Z,55.90
2019-03-04T08:57:47.607Z,1.00
2019-03-04T09:00:29.973Z,99.90
2019-03-04T09:02:58.418Z,1.00
2019-03-04T09:05:26.918Z,99.90
2019-03-04T09:07:55.371Z,99.90
2019-03-04T09:10:28.943Z,99.90
2019-03-04T09:12:57.391Z,1.00
2019-03-04T09:15:26.047Z,99.90
2019-03-04T09:17:54.494Z,99.90
2019-03-04T09:20:24.388Z,99.90
2019-03-04T09:22:53.272Z,99.90
2019-03-04T09:25:30.537Z,1.00
2019-03-04T09:27:57.632Z,1.00
2019-03-04T09:30:26.135Z,1.00
2019-03-04T09:32:54.596Z,99.90
2019-03-04T09:35:23.149Z,99.90
2019-03-04T09:37:51.812Z,99.90
2019-03-04T09:40:22.714Z,99.90
2019-03-04T09:42:52.032Z,99.90
2019-03-04T09:45:20.547Z,99.90
2019-03-04T09:47:49.145Z,99.90
2019-03-04T09:50:25.689Z,99.90
2019-03-04T09:52:54.228Z,99.90
2019-03-04T09:55:22.871Z,99.90
2019-03-04T09:57:51.313Z,99.90
2019-03-04T10:00:46.717Z,99.90
2019-03-04T10:03:33.218Z,99.90
2019-03-04T10:06:25.413Z,99.90
2019-03-04T10:09:16.150Z,99.90
2019-03-04T10:12:02.327Z,99.20
2019-03-04T10:14:48.436Z,99.90
2019-03-04T10:17:36.446Z,99.90
2019-03-04T10:20:22.544Z,99.90
2019-03-04T10:23:09.069Z,64.90
2019-03-04T10:25:57.122Z,73.80
2019-03-04T10:28:53.739Z,37.20
2019-03-04T10:31:46.054Z,34.40
2019-03-04T10:34:38.325Z,35.30
2019-03-04T10:37:36.431Z,20.70
2019-03-04T10:40:32.779Z,31.20
2019-03-04T10:43:23.806Z,54.50
2019-03-04T10:46:07.205Z,56.30
2019-03-04T10:48:35.671Z,58.70
2019-03-04T10:51:04.379Z,57.70
2019-03-04T10:53:32.976Z,51.90
2019-03-04T10:56:01.431Z,70.50
2019-03-04T10:58:29.898Z,74.60
2019-03-04T11:00:58.597Z,86.80
2019-03-04T11:03:27.106Z,77.70
2019-03-04T11:06:14.826Z,77.90
2019-03-04T11:08:43.258Z,91.80
2019-03-04T11:11:11.998Z,95.70
2019-03-04T11:13:40.506Z,96.00
2019-03-04T11:16:08.959Z,99.90
2019-03-04T11:18:37.487Z,99.90
2019-03-04T11:21:06.258Z,99.90
2019-03-04T11:23:34.786Z,99.90
2019-03-04T11:26:03.230Z,99.90
2019-03-04T11:28:31.694Z,99.90
2019-03-04T11:31:00.138Z,99.90
2019-03-04T11:33:28.575Z,99.90
2019-03-04T11:35:57.183Z,99.90
2019-03-04T11:38:46.714Z,99.90
2019-03-04T11:41:18.232Z,86.90
2019-03-04T11:43:46.734Z,96.90
2019-03-04T11:46:15.199Z,99.90
2019-03-04T11:48:43.637Z,87.60
2019-03-04T11:51:12.145Z,99.90
2019-03-04T11:53:40.607Z,99.90
2019-03-04T11:56:09.119Z,99.90
2019-03-04T11:58:37.594Z,69.60
2019-03-04T12:01:17.490Z,94.20
2019-03-04T12:03:46.080Z,99.10
2019-03-04T12:06:14.540Z,60.00
2019-03-04T12:08:42.982Z,57.30
2019-03-04T12:11:11.443Z,26.40
2019-03-04T12:13:39.883Z,12.40
2019-03-04T12:16:08.338Z,13.20
2019-03-04T12:18:36.845Z,1.00
2019-03-04T12:21:05.542Z,1.00
2019-03-04T12:23:33.978Z,1.00
2019-03-04T12:26:02.551Z,1.00
2019-03-04T12:28:31.010Z,1.00
2019-03-04T12:30:59.583Z,1.00
2019-03-04T12:33:28.116Z,1.00
2019-03-04T12:35:56.553Z,1.00
2019-03-04T12:38:25.076Z,1.00
2019-03-04T12:40:53.508Z,1.00
2019-03-04T12:43:21.943Z,1.00
2019-03-04T12:45:50.537Z,1.00
2019-03-04T12:48:19.111Z,1.00
2019-03-04T12:50:47.707Z,1.00
2019-03-04T12:53:17.012Z,1.00
2019-03-04T12:55:45.464Z,1.00
2019-03-04T12:58:14.045Z,1.00
2019-03-04T13:00:42.478Z,1.00
2019-03-04T13:03:19.754Z,1.00
2019-03-04T13:05:48.265Z,1.00
2019-03-04T13:08:16.785Z,1.00
2019-03-04T13:10:45.222Z,1.00
2019-03-04T13:13:13.743Z,1.00
2019-03-04T13:15:42.246Z,1.00
2019-03-04T13:18:12.449Z,1.00
2019-03-04T13:20:41.086Z,1.00
2019-03-04T13:23:09.655Z,1.00
2019-03-04T13:25:38.106Z,1.00
2019-03-04T13:28:08.460Z,1.00
2019-03-04T13:30:39.260Z,1.00
2019-03-04T13:33:07.837Z,1.00
2019-03-04T13:35:41.122Z,1.00
2019-03-04T13:38:09.800Z,1.00
2019-03-04T13:40:38.379Z,1.00
2019-03-04T13:43:07.039Z,1.00
2019-03-04T13:45:35.790Z,1.00
2019-03-04T13:48:04.486Z,1.00
2019-03-04T13:50:34.859Z,1.00
2019-03-04T13:53:03.394Z,1.00
2019-03-04T13:55:31.913Z,1.00
2019-03-04T13:58:00.483Z,1.00
2019-03-04T14:00:32.083Z,1.00
2019-03-04T14:03:00.606Z,1.00
2019-03-04T14:05:29.210Z,1.00
2019-03-04T14:07:57.892Z,1.00
2019-03-04T14:10:40.739Z,1.00
2019-03-04T14:13:09.392Z,1.00
2019-03-04T14:15:51.657Z,1.00
2019-03-04T14:18:20.098Z,1.00
2019-03-04T14:20:48.624Z,1.00
2019-03-04T14:23:17.175Z,1.00
2019-03-04T14:25:45.671Z,1.00
2019-03-04T14:28:28.344Z,1.00
2019-03-04T14:30:56.950Z,1.00
2019-03-04T14:33:25.425Z,1.00
2019-03-04T14:35:53.863Z,1.00
2019-03-04T14:38:22.300Z,1.00
2019-03-04T14:40:50.764Z,1.00
2019-03-04T14:43:19.204Z,1.00
2019-03-04T14:46:07.042Z,1.00
2019-03-04T14:48:35.546Z,1.00
2019-03-04T14:51:04.161Z,1.00
2019-03-04T14:53:32.667Z,1.00
2019-03-04T14:56:01.471Z,1.00
2019-03-04T14:58:30.069Z,1.00
2019-03-04T15:00:58.506Z,1.00
2019-03-04T15:03:26.969Z,1.00
2019-03-04T15:06:14.674Z,1.00
2019-03-04T15:08:43.141Z,1.00
2019-03-04T15:11:11.574Z,1.00
2019-03-04T15:13:40.039Z,1.00
2019-03-04T15:16:08.480Z,1.00
2019-03-04T15:18:36.955Z,1.00
2019-03-04T15:21:24.736Z,1.00
2019-03-04T15:23:53.202Z,1.00
2019-03-04T15:26:21.923Z,1.00
2019-03-04T15:28:50.423Z,1.00
2019-03-04T15:31:18.899Z,1.00
2019-03-04T15:33:47.324Z,1.00
2019-03-04T15:36:15.782Z,1.00
2019-03-04T15:38:44.228Z,1.00
2019-03-04T15:41:12.844Z,1.00
2019-03-04T15:43:41.432Z,1.00
2019-03-04T15:46:09.954Z,1.00
2019-03-04T15:48:38.493Z,1.00
2019-03-04T15:51:07.080Z,1.00
2019-03-04T15:53:35.544Z,1.00
2019-03-04T15:56:04.054Z,1.00
2019-03-04T15:58:32.586Z,1.00
2019-03-04T16:01:01.107Z,1.00
2019-03-04T16:03:29.850Z,29.80
2019-03-04T16:05:58.487Z,38.90
2019-03-04T16:08:26.935Z,41.20
2019-03-04T16:10:55.566Z,47.10
2019-03-04T16:13:24.070Z,50.60
2019-03-04T16:15:52.703Z,50.80
2019-03-04T16:18:21.288Z,49.20
2019-03-04T16:20:49.831Z,49.20
2019-03-04T16:23:18.351Z,34.20
2019-03-04T16:25:46.807Z,39.10
2019-03-04T16:28:23.981Z,27.80
2019-03-04T16:30:52.585Z,30.30
2019-03-04T16:33:22.735Z,31.10
2019-03-04T16:35:51.196Z,24.50
2019-03-04T16:38:19.905Z,13.30
2019-03-04T16:40:48.406Z,18.30
2019-03-04T16:43:17.035Z,10.00
2019-03-04T16:45:45.638Z,1.80
2019-03-04T16:48:14.094Z,1.00
2019-03-04T16:50:44.781Z,1.00
2019-03-04T16:53:28.160Z,1.00
2019-03-04T16:55:56.700Z,1.00
2019-03-04T16:58:25.216Z,1.00
2019-03-04T17:00:53.737Z,1.00
2019-03-04T17:03:22.195Z,1.00
2019-03-04T17:05:50.795Z,1.00
2019-03-04T17:08:19.240Z,1.00
2019-03-04T17:10:47.946Z,1.00
2019-03-04T17:13:16.455Z,1.00
2019-03-04T17:15:44.986Z,1.00
2019-03-04T17:18:13.491Z,1.00
2019-03-04T17:20:42.171Z,25.50
2019-03-04T17:23:10.618Z,44.60
2019-03-04T17:25:39.471Z,56.70
2019-03-04T17:28:28.805Z,71.70
2019-03-04T17:30:57.238Z,69.50
2019-03-04T17:33:25.773Z,81.10
2019-03-04T17:35:54.275Z,85.60
2019-03-04T17:38:22.895Z,84.10
2019-03-04T17:40:51.559Z,90.10
2019-03-04T17:43:20.369Z,91.20
2019-03-04T17:45:48.887Z,91.20
2019-03-04T17:48:36.675Z,90.10
2019-03-04T17:51:06.247Z,88.90
2019-03-04T17:53:34.847Z,86.10
2019-03-04T17:56:03.317Z,84.00
2019-03-04T17:58:31.760Z,85.90
2019-03-04T18:01:00.266Z,82.90
2019-03-04T18:03:28.730Z,83.20
2019-03-04T18:05:57.172Z,81.30
2019-03-04T18:08:25.645Z,79.00
2019-03-04T18:10:54.154Z,79.90
2019-03-04T18:13:22.600Z,76.30
2019-03-04T18:15:51.067Z,73.40
2019-03-04T18:18:19.516Z,74.20
2019-03-04T18:20:48.011Z,74.10
2019-03-04T18:23:16.506Z,66.40
2019-03-04T18:26:05.853Z,62.60
2019-03-04T18:28:43.083Z,52.80
2019-03-04T18:31:20.173Z,53.80
2019-03-04T18:34:16.802Z,56.90
2019-03-04T18:36:54.167Z,52.40
2019-03-04T18:39:37.891Z,49.20
2019-03-04T18:42:26.360Z,37.80
2019-03-04T18:45:24.516Z,24.40
2019-03-04T18:47:58.686Z,29.20
2019-03-04T18:50:27.306Z,29.20
2019-03-04T18:52:55.756Z,30.10
2019-03-04T18:55:24.309Z,18.60
2019-03-04T18:57:52.825Z,22.00
2019-03-04T19:00:27.698Z,25.90
2019-03-04T19:02:56.140Z,23.20
2019-03-04T19:05:25.036Z,19.60
2019-03-04T19:07:53.636Z,22.50
2019-03-04T19:10:22.150Z,17.60
2019-03-04T19:12:50.747Z,16.60
2019-03-04T19:15:19.187Z,1.00
2019-03-04T19:17:47.635Z,18.30
2019-03-04T19:20:35.440Z,23.40
2019-03-04T19:23:04.213Z,17.50
2019-03-04T19:25:34.185Z,28.90
2019-03-04T19:28:02.880Z,19.00
2019-03-04T19:30:31.345Z,21.00
2019-03-04T19:33:00.171Z,22.00
2019-03-04T19:35:29.432Z,20.50
2019-03-04T19:37:58.176Z,25.10
2019-03-04T19:40:26.827Z,26.20
2019-03-04T19:42:55.560Z,20.30
2019-03-04T19:45:24.343Z,21.70
2019-03-04T19:47:53.167Z,18.10
2019-03-04T19:50:21.748Z,29.00
2019-03-04T19:52:50.415Z,23.70
2019-03-04T19:55:19.196Z,14.20
2019-03-04T19:57:47.850Z,18.00
2019-03-04T20:00:19.555Z,7.30
2019-03-04T20:02:51.436Z,1.10
2019-03-04T20:05:22.068Z,11.20
2019-03-04T20:07:50.985Z,15.90
2019-03-04T20:10:19.550Z,8.20
2019-03-04T20:12:48.338Z,4.10
2019-03-04T20:15:22.306Z,8.90
2019-03-04T20:17:50.959Z,3.40
2019-03-04T20:20:30.680Z,1.00
2019-03-04T20:22:59.339Z,9.50
2019-03-04T20:25:29.600Z,11.90
2019-03-04T20:27:58.185Z,21.80
2019-03-04T20:30:26.791Z,33.60
2019-03-04T20:32:55.424Z,44.60
2019-03-04T20:35:23.933Z,50.90
2019-03-04T20:38:07.694Z,58.10
2019-03-04T20:40:36.207Z,63.40
2019-03-04T20:43:04.907Z,59.30
2019-03-04T20:45:33.412Z,66.10
2019-03-04T20:48:01.979Z,60.40
2019-03-04T20:50:30.492Z,57.50
2019-03-04T20:52:58.958Z,63.60
2019-03-04T20:55:27.495Z,66.70
2019-03-04T20:57:55.936Z,68.20
2019-03-04T21:00:27.879Z,62.70
2019-03-04T21:02:56.582Z,68.80
2019-03-04T21:05:25.960Z,70.50
2019-03-04T21:07:54.648Z,71.50
2019-03-04T21:10:23.260Z,57.60
2019-03-04T21:12:52.514Z,68.80
2019-03-04T21:15:21.094Z,67.90
2019-03-04T21:17:49.658Z,52.60
2019-03-04T21:20:19.853Z,62.20
2019-03-04T21:22:48.496Z,60.10
2019-03-04T21:25:31.645Z,43.30
2019-03-04T21:28:00.110Z,48.10
2019-03-04T21:30:52.516Z,57.60
2019-03-04T21:33:27.003Z,55.00
2019-03-04T21:36:04.592Z,66.30
2019-03-04T21:38:33.192Z,70.00
2019-03-04T21:41:07.177Z,62.40
2019-03-04T21:43:38.788Z,74.40
2019-03-04T21:46:21.988Z,77.30
2019-03-04T21:48:57.042Z,78.10
2019-03-04T21:51:52.956Z,77.20
2019-03-04T21:54:21.768Z,77.30
2019-03-04T21:57:14.247Z,81.90
2019-03-04T21:59:42.948Z,86.10
2019-03-04T22:02:22.644Z,86.90
2019-03-04T22:04:51.240Z,88.20
2019-03-04T22:07:19.835Z,88.80
2019-03-04T22:09:48.559Z,89.40
2019-03-04T22:12:17.142Z,91.00
2019-03-04T22:14:45.665Z,90.00
2019-03-04T22:17:14.197Z,90.30
2019-03-04T22:19:42.851Z,88.40
2019-03-04T22:22:11.457Z,89.30
2019-03-04T22:24:40.020Z,90.70
2019-03-04T22:27:08.523Z,90.80
2019-03-04T22:29:37.042Z,91.00
2019-03-04T22:32:24.845Z,91.00
2019-03-04T22:34:53.368Z,90.80
2019-03-04T22:37:22.083Z,90.70
2019-03-04T22:39:50.614Z,90.00
2019-03-04T22:42:19.119Z,87.30
2019-03-04T22:44:47.678Z,85.60
2019-03-04T22:47:16.184Z,83.50
2019-03-04T22:49:44.715Z,86.90
2019-03-04T22:52:13.159Z,87.60
2019-03-04T22:54:41.699Z,87.60
2019-03-04T22:57:29.476Z,83.30
2019-03-04T22:59:57.937Z,86.00
2019-03-04T23:02:27.016Z,85.70
2019-03-04T23:04:56.401Z,84.40
2019-03-04T23:07:24.870Z,83.40
2019-03-04T23:09:56.691Z,83.10
2019-03-04T23:12:40.350Z,83.50
2019-03-04T23:15:14.594Z,82.80
2019-03-04T23:17:43.119Z,74.20
2019-03-04T23:20:11.630Z,80.90
2019-03-04T23:22:40.086Z,71.10
2019-03-04T23:25:27.869Z,72.30
2019-03-04T23:27:56.327Z,70.70
2019-03-04T23:30:24.920Z,71.10
2019-03-04T23:32:53.434Z,69.30
2019-03-04T23:35:21.963Z,65.70
2019-03-04T23:37:50.417Z,59.20
2019-03-04T23:40:18.948Z,63.10
2019-03-04T23:43:06.763Z,57.20
2019-03-04T23:45:35.268Z,47.80
2019-03-04T23:48:23.138Z,40.50
2019-03-04T23:50:52.400Z,54.00
2019-03-04T23:53:20.868Z,49.50
2019-03-04T23:55:49.378Z,45.30
2019-03-04T23:58:17.894Z,29.00
